sensor_id;sensor_type;location;lat;lon;timestamp;pressure;altitude;pressure_sealevel;temperature;humidity
57232;BME280;43488;46.934;8.276;2023-04-28T00:02:02;96384.22;;;12.80;91.00
57232;BME280;43488;46.934;8.276;2023-04-28T00:04:29;96390.09;;;12.82;90.65
57232;BME280;43488;46.934;8.276;2023-04-28T00:06:57;96395.13;;;12.72;91.99
57232;BME280;43488;46.934;8.276;2023-04-28T00:09:27;96397.38;;;12.68;92.83
57232;BME280;43488;46.934;8.276;2023-04-28T00:11:55;96400.41;;;12.72;92.75
57232;BME280;43488;46.934;8.276;2023-04-28T00:14:22;96398.91;;;12.76;93.18
57232;BME280;43488;46.934;8.276;2023-04-28T00:16:49;96387.31;;;12.77;93.80
57232;BME280;43488;46.934;8.276;2023-04-28T00:19:16;96394.78;;;12.80;92.80
57232;BME280;43488;46.934;8.276;2023-04-28T00:21:43;96390.09;;;12.82;92.67
57232;BME280;43488;46.934;8.276;2023-04-28T00:24:11;96387.88;;;12.79;93.55
57232;BME280;43488;46.934;8.276;2023-04-28T00:26:38;96392.38;;;12.78;93.49
57232;BME280;43488;46.934;8.276;2023-04-28T00:29:05;96387.09;;;12.78;93.80
57232;BME280;43488;46.934;8.276;2023-04-28T00:31:32;96389.72;;;12.78;94.14
57232;BME280;43488;46.934;8.276;2023-04-28T00:34:01;96384.91;;;12.75;94.53
57232;BME280;43488;46.934;8.276;2023-04-28T00:36:30;96374.19;;;12.70;93.28
57232;BME280;43488;46.934;8.276;2023-04-28T00:38:58;96377.50;;;12.66;93.34
57232;BME280;43488;46.934;8.276;2023-04-28T00:41:25;96375.00;;;12.71;93.23
57232;BME280;43488;46.934;8.276;2023-04-28T00:43:53;96378.00;;;12.74;92.89
57232;BME280;43488;46.934;8.276;2023-04-28T00:46:24;96378.81;;;12.75;93.53
57232;BME280;43488;46.934;8.276;2023-04-28T00:48:52;96370.66;;;12.76;93.64
57232;BME280;43488;46.934;8.276;2023-04-28T00:51:20;96374.09;;;12.77;93.47
57232;BME280;43488;46.934;8.276;2023-04-28T00:53:47;96379.38;;;12.77;93.71
57232;BME280;43488;46.934;8.276;2023-04-28T00:56:15;96381.00;;;12.78;94.15
57232;BME280;43488;46.934;8.276;2023-04-28T00:58:42;96379.31;;;12.84;93.67
57232;BME280;43488;46.934;8.276;2023-04-28T01:01:10;96372.66;;;12.81;93.58
57232;BME280;43488;46.934;8.276;2023-04-28T01:03:40;96373.66;;;12.80;92.85
57232;BME280;43488;46.934;8.276;2023-04-28T01:06:08;96366.31;;;12.82;92.47
57232;BME280;43488;46.934;8.276;2023-04-28T01:08:38;96360.59;;;12.85;92.88
57232;BME280;43488;46.934;8.276;2023-04-28T01:11:05;96359.78;;;12.85;93.50
57232;BME280;43488;46.934;8.276;2023-04-28T01:13:33;96375.28;;;12.81;93.28
57232;BME280;43488;46.934;8.276;2023-04-28T01:16:00;96369.84;;;12.76;94.38
57232;BME280;43488;46.934;8.276;2023-04-28T01:18:28;96375.81;;;12.71;94.43
57232;BME280;43488;46.934;8.276;2023-04-28T01:20:58;96384.75;;;12.70;93.39
57232;BME280;43488;46.934;8.276;2023-04-28T01:23:25;96376.16;;;12.75;93.17
57232;BME280;43488;46.934;8.276;2023-04-28T01:25:53;96373.59;;;12.68;96.30
57232;BME280;43488;46.934;8.276;2023-04-28T01:28:21;96365.69;;;12.68;96.07
57232;BME280;43488;46.934;8.276;2023-04-28T01:30:51;96362.47;;;12.66;96.48
57232;BME280;43488;46.934;8.276;2023-04-28T01:33:18;96356.16;;;12.67;96.39
57232;BME280;43488;46.934;8.276;2023-04-28T01:35:46;96349.41;;;12.71;95.08
57232;BME280;43488;46.934;8.276;2023-04-28T01:38:13;96345.75;;;12.72;95.63
57232;BME280;43488;46.934;8.276;2023-04-28T01:40:41;96356.72;;;12.69;95.48
57232;BME280;43488;46.934;8.276;2023-04-28T01:43:08;96345.47;;;12.62;95.97
57232;BME280;43488;46.934;8.276;2023-04-28T01:45:35;96336.72;;;12.62;96.07
57232;BME280;43488;46.934;8.276;2023-04-28T01:48:03;96347.88;;;12.64;96.65
57232;BME280;43488;46.934;8.276;2023-04-28T01:50:30;96341.34;;;12.66;96.42
57232;BME280;43488;46.934;8.276;2023-04-28T01:52:59;96343.53;;;12.69;96.76
57232;BME280;43488;46.934;8.276;2023-04-28T01:55:27;96344.56;;;12.68;96.55
57232;BME280;43488;46.934;8.276;2023-04-28T01:57:54;96339.50;;;12.67;96.82
57232;BME280;43488;46.934;8.276;2023-04-28T02:00:24;96348.47;;;12.66;97.33
57232;BME280;43488;46.934;8.276;2023-04-28T02:02:51;96348.47;;;12.66;96.68
57232;BME280;43488;46.934;8.276;2023-04-28T02:05:18;96352.56;;;12.62;97.31
57232;BME280;43488;46.934;8.276;2023-04-28T02:07:46;96354.63;;;12.60;97.49
57232;BME280;43488;46.934;8.276;2023-04-28T02:10:13;96347.88;;;12.64;97.17
57232;BME280;43488;46.934;8.276;2023-04-28T02:12:40;96341.19;;;12.61;96.87
57232;BME280;43488;46.934;8.276;2023-04-28T02:15:09;96347.38;;;12.55;96.58
57232;BME280;43488;46.934;8.276;2023-04-28T02:17:36;96349.66;;;12.51;95.93
57232;BME280;43488;46.934;8.276;2023-04-28T02:20:05;96349.06;;;12.49;97.24
57232;BME280;43488;46.934;8.276;2023-04-28T02:22:32;96338.28;;;12.51;98.35
57232;BME280;43488;46.934;8.276;2023-04-28T02:25:00;96349.44;;;12.53;98.38
57232;BME280;43488;46.934;8.276;2023-04-28T02:27:27;96334.19;;;12.55;98.67
57232;BME280;43488;46.934;8.276;2023-04-28T02:29:54;96341.19;;;12.61;98.86
57232;BME280;43488;46.934;8.276;2023-04-28T02:32:21;96332.69;;;12.59;98.81
57232;BME280;43488;46.934;8.276;2023-04-28T02:34:55;96328.34;;;12.53;99.05
57232;BME280;43488;46.934;8.276;2023-04-28T02:37:22;96325.88;;;12.51;98.87
57232;BME280;43488;46.934;8.276;2023-04-28T02:39:50;96323.25;;;12.51;99.16
57232;BME280;43488;46.934;8.276;2023-04-28T02:42:17;96317.09;;;12.58;98.29
57232;BME280;43488;46.934;8.276;2023-04-28T02:44:45;96317.66;;;12.60;98.00
57232;BME280;43488;46.934;8.276;2023-04-28T02:47:12;96320.28;;;12.60;97.67
57232;BME280;43488;46.934;8.276;2023-04-28T02:49:40;96324.78;;;12.59;98.23
57232;BME280;43488;46.934;8.276;2023-04-28T02:52:09;96326.38;;;12.60;98.41
57232;BME280;43488;46.934;8.276;2023-04-28T02:54:36;96325.56;;;12.60;98.75
57232;BME280;43488;46.934;8.276;2023-04-28T02:57:04;96306.75;;;12.56;99.05
57232;BME280;43488;46.934;8.276;2023-04-28T02:59:31;96297.78;;;12.57;99.02
57232;BME280;43488;46.934;8.276;2023-04-28T03:01:58;96295.97;;;12.58;98.15
57232;BME280;43488;46.934;8.276;2023-04-28T03:04:27;96299.97;;;12.60;97.71
57232;BME280;43488;46.934;8.276;2023-04-28T03:06:54;96312.16;;;12.61;97.19
57232;BME280;43488;46.934;8.276;2023-04-28T03:09:22;96321.47;;;12.64;97.77
57232;BME280;43488;46.934;8.276;2023-04-28T03:11:50;96323.88;;;12.65;98.40
57232;BME280;43488;46.934;8.276;2023-04-28T03:14:18;96321.00;;;12.67;98.80
57232;BME280;43488;46.934;8.276;2023-04-28T03:16:45;96314.69;;;12.68;99.15
57232;BME280;43488;46.934;8.276;2023-04-28T03:19:12;96311.59;;;12.71;98.66
57232;BME280;43488;46.934;8.276;2023-04-28T03:21:40;96307.16;;;12.71;97.89
57232;BME280;43488;46.934;8.276;2023-04-28T03:24:08;96304.28;;;12.73;98.36
57232;BME280;43488;46.934;8.276;2023-04-28T03:26:37;96317.03;;;12.76;99.12
57232;BME280;43488;46.934;8.276;2023-04-28T03:29:04;96331.13;;;12.70;100.00
57232;BME280;43488;46.934;8.276;2023-04-28T03:31:32;96332.63;;;12.66;100.00
57232;BME280;43488;46.934;8.276;2023-04-28T03:33:59;96340.53;;;12.66;100.00
57232;BME280;43488;46.934;8.276;2023-04-28T03:36:26;96331.81;;;12.65;100.00
57232;BME280;43488;46.934;8.276;2023-04-28T03:38:53;96338.13;;;12.64;100.00
57232;BME280;43488;46.934;8.276;2023-04-28T03:41:21;96338.00;;;12.71;100.00
57232;BME280;43488;46.934;8.276;2023-04-28T03:43:48;96338.00;;;12.71;100.00
57232;BME280;43488;46.934;8.276;2023-04-28T03:46:15;96336.88;;;12.67;100.00
57232;BME280;43488;46.934;8.276;2023-04-28T03:48:43;96341.19;;;12.61;100.00
57232;BME280;43488;46.934;8.276;2023-04-28T03:51:14;96353.16;;;12.64;100.00
57232;BME280;43488;46.934;8.276;2023-04-28T03:53:41;96350.53;;;12.64;100.00
57232;BME280;43488;46.934;8.276;2023-04-28T03:56:10;96354.53;;;12.66;100.00
57232;BME280;43488;46.934;8.276;2023-04-28T03:58:37;96355.59;;;12.65;100.00
57232;BME280;43488;46.934;8.276;2023-04-28T04:01:05;96366.38;;;12.64;100.00
57232;BME280;43488;46.934;8.276;2023-04-28T04:03:32;96364.88;;;12.68;100.00
57232;BME280;43488;46.934;8.276;2023-04-28T04:06:00;96356.13;;;12.56;100.00
57232;BME280;43488;46.934;8.276;2023-04-28T04:08:28;96370.13;;;12.56;100.00
57232;BME280;43488;46.934;8.276;2023-04-28T04:10:55;96364.59;;;12.58;100.00
57232;BME280;43488;46.934;8.276;2023-04-28T04:13:23;96359.78;;;12.55;100.00
57232;BME280;43488;46.934;8.276;2023-04-28T04:15:50;96349.78;;;12.57;100.00
57232;BME280;43488;46.934;8.276;2023-04-28T04:18:18;96354.13;;;12.51;100.00
57232;BME280;43488;46.934;8.276;2023-04-28T04:20:45;96363.47;;;12.53;100.00
57232;BME280;43488;46.934;8.276;2023-04-28T04:23:13;96368.94;;;12.52;100.00
57232;BME280;43488;46.934;8.276;2023-04-28T04:25:41;96367.56;;;12.49;100.00
57232;BME280;43488;46.934;8.276;2023-04-28T04:28:10;96375.25;;;12.51;100.00
57232;BME280;43488;46.934;8.276;2023-04-28T04:30:37;96364.91;;;12.49;100.00
57232;BME280;43488;46.934;8.276;2023-04-28T04:33:05;96380.31;;;12.52;100.00
57232;BME280;43488;46.934;8.276;2023-04-28T04:35:32;96370.34;;;12.55;100.00
57232;BME280;43488;46.934;8.276;2023-04-28T04:38:01;96373.22;;;12.53;100.00
57232;BME280;43488;46.934;8.276;2023-04-28T04:40:29;96375.63;;;12.55;100.00
57232;BME280;43488;46.934;8.276;2023-04-28T04:42:56;96379.66;;;12.57;100.00
57232;BME280;43488;46.934;8.276;2023-04-28T04:45:24;96372.53;;;12.58;100.00
57232;BME280;43488;46.934;8.276;2023-04-28T04:47:52;96381.59;;;12.62;100.00
57232;BME280;43488;46.934;8.276;2023-04-28T04:50:19;96383.25;;;12.63;100.00
57232;BME280;43488;46.934;8.276;2023-04-28T04:52:46;96390.00;;;12.59;100.00
57232;BME280;43488;46.934;8.276;2023-04-28T04:55:14;96395.50;;;12.57;100.00
57232;BME280;43488;46.934;8.276;2023-04-28T04:57:42;96394.69;;;12.57;100.00
57232;BME280;43488;46.934;8.276;2023-04-28T05:00:10;96402.84;;;12.55;100.00
57232;BME280;43488;46.934;8.276;2023-04-28T05:02:37;96397.56;;;12.55;100.00
57232;BME280;43488;46.934;8.276;2023-04-28T05:05:05;96386.63;;;12.51;100.00
57232;BME280;43488;46.934;8.276;2023-04-28T05:07:34;96388.22;;;12.52;100.00
57232;BME280;43488;46.934;8.276;2023-04-28T05:10:01;96395.16;;;12.53;100.00
57232;BME280;43488;46.934;8.276;2023-04-28T05:12:30;96397.97;;;12.52;100.00
57232;BME280;43488;46.934;8.276;2023-04-28T05:14:58;96405.31;;;12.50;100.00
57232;BME280;43488;46.934;8.276;2023-04-28T05:17:26;96396.81;;;12.48;100.00
57232;BME280;43488;46.934;8.276;2023-04-28T05:19:53;96411.88;;;12.47;100.00
57232;BME280;43488;46.934;8.276;2023-04-28T05:22:20;96407.63;;;12.46;100.00
57232;BME280;43488;46.934;8.276;2023-04-28T05:24:47;96399.69;;;12.46;100.00
57232;BME280;43488;46.934;8.276;2023-04-28T05:27:15;96397.63;;;12.48;100.00
57232;BME280;43488;46.934;8.276;2023-04-28T05:29:42;96400.28;;;12.48;100.00
57232;BME280;43488;46.934;8.276;2023-04-28T05:32:09;96399.81;;;12.51;100.00
57232;BME280;43488;46.934;8.276;2023-04-28T05:34:37;96382.94;;;12.52;100.00
57232;BME280;43488;46.934;8.276;2023-04-28T05:37:05;96383.09;;;12.58;100.00
57232;BME280;43488;46.934;8.276;2023-04-28T05:39:33;96370.94;;;12.57;100.00
57232;BME280;43488;46.934;8.276;2023-04-28T05:42:01;96371.16;;;12.55;100.00
57232;BME280;43488;46.934;8.276;2023-04-28T05:44:31;96367.56;;;12.49;100.00
57232;BME280;43488;46.934;8.276;2023-04-28T05:46:58;96368.00;;;12.46;100.00
57232;BME280;43488;46.934;8.276;2023-04-28T05:49:26;96362.16;;;12.44;100.00
57232;BME280;43488;46.934;8.276;2023-04-28T05:51:53;96356.06;;;12.44;100.00
57232;BME280;43488;46.934;8.276;2023-04-28T05:54:21;96368.66;;;12.42;100.00
57232;BME280;43488;46.934;8.276;2023-04-28T05:56:49;96373.06;;;12.48;100.00
57232;BME280;43488;46.934;8.276;2023-04-28T05:59:16;96359.28;;;12.46;100.00
57232;BME280;43488;46.934;8.276;2023-04-28T06:01:44;96360.31;;;12.45;100.00
57232;BME280;43488;46.934;8.276;2023-04-28T06:04:12;96372.78;;;12.38;100.00
57232;BME280;43488;46.934;8.276;2023-04-28T06:06:40;96364.41;;;12.41;100.00
57232;BME280;43488;46.934;8.276;2023-04-28T06:09:07;96365.22;;;12.41;100.00
57232;BME280;43488;46.934;8.276;2023-04-28T06:11:35;96360.31;;;12.45;100.00
57232;BME280;43488;46.934;8.276;2023-04-28T06:14:02;96369.03;;;12.45;100.00
57232;BME280;43488;46.934;8.276;2023-04-28T06:16:29;96367.78;;;12.48;100.00
57232;BME280;43488;46.934;8.276;2023-04-28T06:18:57;96378.50;;;12.53;100.00
57232;BME280;43488;46.934;8.276;2023-04-28T06:21:24;96373.56;;;12.57;100.00
57232;BME280;43488;46.934;8.276;2023-04-28T06:23:54;96373.69;;;12.62;100.00
57232;BME280;43488;46.934;8.276;2023-04-28T06:26:22;96375.44;;;12.68;100.00
57232;BME280;43488;46.934;8.276;2023-04-28T06:28:49;96390.03;;;12.70;100.00
57232;BME280;43488;46.934;8.276;2023-04-28T06:31:17;96386.38;;;12.71;100.00
57232;BME280;43488;46.934;8.276;2023-04-28T06:33:45;96374.09;;;12.77;100.00
57232;BME280;43488;46.934;8.276;2023-04-28T06:36:12;96379.75;;;12.80;100.00
57232;BME280;43488;46.934;8.276;2023-04-28T06:38:44;96375.06;;;12.82;100.00
57232;BME280;43488;46.934;8.276;2023-04-28T06:41:12;96383.31;;;12.86;100.00
57232;BME280;43488;46.934;8.276;2023-04-28T06:43:40;96387.00;;;12.85;100.00
57232;BME280;43488;46.934;8.276;2023-04-28T06:46:07;96387.22;;;12.84;100.00
57232;BME280;43488;46.934;8.276;2023-04-28T06:48:35;96393.09;;;12.86;100.00
57232;BME280;43488;46.934;8.276;2023-04-28T06:51:03;96381.56;;;12.80;100.00
57232;BME280;43488;46.934;8.276;2023-04-28T06:53:30;96380.69;;;12.86;100.00
57232;BME280;43488;46.934;8.276;2023-04-28T06:55:58;96389.78;;;12.90;100.00
57232;BME280;43488;46.934;8.276;2023-04-28T06:58:26;96382.78;;;12.96;100.00
57232;BME280;43488;46.934;8.276;2023-04-28T07:00:53;96379.47;;;13.00;100.00
57232;BME280;43488;46.934;8.276;2023-04-28T07:03:20;96384.31;;;13.03;100.00
57232;BME280;43488;46.934;8.276;2023-04-28T07:05:48;96378.22;;;13.03;100.00
57232;BME280;43488;46.934;8.276;2023-04-28T07:08:15;96374.69;;;13.09;100.00
57232;BME280;43488;46.934;8.276;2023-04-28T07:10:43;96368.28;;;13.17;100.00
57232;BME280;43488;46.934;8.276;2023-04-28T07:13:11;96374.03;;;13.25;100.00
57232;BME280;43488;46.934;8.276;2023-04-28T07:15:38;96367.06;;;13.31;100.00
57232;BME280;43488;46.934;8.276;2023-04-28T07:18:06;96359.94;;;13.43;100.00
57232;BME280;43488;46.934;8.276;2023-04-28T07:20:33;96364.53;;;13.59;100.00
57232;BME280;43488;46.934;8.276;2023-04-28T07:23:01;96361.91;;;13.71;100.00
57232;BME280;43488;46.934;8.276;2023-04-28T07:25:28;96358.91;;;13.79;100.00
57232;BME280;43488;46.934;8.276;2023-04-28T07:27:56;96354.22;;;13.81;100.00
57232;BME280;43488;46.934;8.276;2023-04-28T07:30:23;96358.56;;;13.76;100.00
57232;BME280;43488;46.934;8.276;2023-04-28T07:32:50;96353.75;;;13.73;100.00
57232;BME280;43488;46.934;8.276;2023-04-28T07:35:18;96354.31;;;13.75;100.00
57232;BME280;43488;46.934;8.276;2023-04-28T07:37:45;96358.34;;;13.65;100.00
57232;BME280;43488;46.934;8.276;2023-04-28T07:40:12;96368.38;;;13.63;100.00
57232;BME280;43488;46.934;8.276;2023-04-28T07:42:40;96362.38;;;13.68;100.00
57232;BME280;43488;46.934;8.276;2023-04-28T07:45:08;96361.56;;;13.79;100.00
57232;BME280;43488;46.934;8.276;2023-04-28T07:47:35;96360.31;;;13.82;100.00
57232;BME280;43488;46.934;8.276;2023-04-28T07:50:03;96366.25;;;13.89;100.00
57232;BME280;43488;46.934;8.276;2023-04-28T07:52:33;96360.63;;;13.97;100.00
57232;BME280;43488;46.934;8.276;2023-04-28T07:55:00;96364.09;;;13.86;100.00
57232;BME280;43488;46.934;8.276;2023-04-28T07:57:29;96357.44;;;13.72;100.00
57232;BME280;43488;46.934;8.276;2023-04-28T07:59:57;96350.53;;;13.59;100.00
57232;BME280;43488;46.934;8.276;2023-04-28T08:02:24;96359.97;;;13.66;100.00
57232;BME280;43488;46.934;8.276;2023-04-28T08:04:53;96356.75;;;13.64;100.00
57232;BME280;43488;46.934;8.276;2023-04-28T08:07:21;96352.81;;;13.67;100.00
57232;BME280;43488;46.934;8.276;2023-04-28T08:09:48;96363.53;;;13.84;100.00
57232;BME280;43488;46.934;8.276;2023-04-28T08:12:16;96379.16;;;13.85;100.00
57232;BME280;43488;46.934;8.276;2023-04-28T08:14:44;96388.16;;;13.73;100.00
57232;BME280;43488;46.934;8.276;2023-04-28T08:17:11;96394.09;;;13.80;100.00
57232;BME280;43488;46.934;8.276;2023-04-28T08:19:38;96395.38;;;13.89;100.00
57232;BME280;43488;46.934;8.276;2023-04-28T08:22:10;96408.59;;;13.89;100.00
57232;BME280;43488;46.934;8.276;2023-04-28T08:24:37;96414.03;;;13.94;100.00
57232;BME280;43488;46.934;8.276;2023-04-28T08:27:05;96413.78;;;13.95;99.35
57232;BME280;43488;46.934;8.276;2023-04-28T08:29:32;96417.13;;;13.91;98.64
57232;BME280;43488;46.934;8.276;2023-04-28T08:31:59;96423.09;;;13.98;99.82
57232;BME280;43488;46.934;8.276;2023-04-28T08:34:32;96430.25;;;13.74;100.00
57232;BME280;43488;46.934;8.276;2023-04-28T08:37:00;96430.69;;;13.71;100.00
57232;BME280;43488;46.934;8.276;2023-04-28T08:39:28;96426.00;;;13.73;100.00
57232;BME280;43488;46.934;8.276;2023-04-28T08:41:57;96434.97;;;13.84;100.00
57232;BME280;43488;46.934;8.276;2023-04-28T08:44:27;96456.31;;;13.59;100.00
57232;BME280;43488;46.934;8.276;2023-04-28T08:46:55;96461.00;;;13.45;100.00
57232;BME280;43488;46.934;8.276;2023-04-28T08:49:34;96481.25;;;13.51;100.00
57232;BME280;43488;46.934;8.276;2023-04-28T08:52:12;96474.00;;;13.47;100.00
57232;BME280;43488;46.934;8.276;2023-04-28T08:54:43;96465.84;;;13.48;100.00
57232;BME280;43488;46.934;8.276;2023-04-28T08:57:12;96460.22;;;13.56;100.00
57232;BME280;43488;46.934;8.276;2023-04-28T08:59:40;96457.84;;;13.66;100.00
57232;BME280;43488;46.934;8.276;2023-04-28T09:02:08;96475.06;;;13.69;100.00
57232;BME280;43488;46.934;8.276;2023-04-28T09:04:36;96473.84;;;13.83;100.00
57232;BME280;43488;46.934;8.276;2023-04-28T09:07:10;96470.16;;;13.96;100.00
57232;BME280;43488;46.934;8.276;2023-04-28T09:09:37;96465.44;;;13.98;100.00
57232;BME280;43488;46.934;8.276;2023-04-28T09:12:06;96461.19;;;13.97;100.00
57232;BME280;43488;46.934;8.276;2023-04-28T09:14:35;96469.59;;;13.94;100.00
57232;BME280;43488;46.934;8.276;2023-04-28T09:17:12;96467.19;;;14.04;100.00
57232;BME280;43488;46.934;8.276;2023-04-28T09:19:41;96474.31;;;14.04;100.00
57232;BME280;43488;46.934;8.276;2023-04-28T09:22:11;96469.94;;;13.86;100.00
57232;BME280;43488;46.934;8.276;2023-04-28T09:24:39;96473.63;;;13.97;100.00
57232;BME280;43488;46.934;8.276;2023-04-28T09:27:10;96476.84;;;13.99;100.00
57232;BME280;43488;46.934;8.276;2023-04-28T09:29:38;96487.78;;;14.02;100.00
57232;BME280;43488;46.934;8.276;2023-04-28T09:32:22;96480.31;;;14.11;100.00
57232;BME280;43488;46.934;8.276;2023-04-28T09:34:52;96477.78;;;14.16;100.00
57232;BME280;43488;46.934;8.276;2023-04-28T09:37:26;96471.00;;;14.20;100.00
57232;BME280;43488;46.934;8.276;2023-04-28T09:40:15;96462.56;;;14.35;100.00
57232;BME280;43488;46.934;8.276;2023-04-28T09:42:43;96480.19;;;14.41;100.00
57232;BME280;43488;46.934;8.276;2023-04-28T09:45:14;96471.78;;;14.32;100.00
57232;BME280;43488;46.934;8.276;2023-04-28T09:47:44;96473.84;;;14.42;100.00
57232;BME280;43488;46.934;8.276;2023-04-28T09:50:14;96477.31;;;14.42;97.26
57232;BME280;43488;46.934;8.276;2023-04-28T09:52:56;96476.97;;;14.39;98.11
57232;BME280;43488;46.934;8.276;2023-04-28T09:55:24;96480.75;;;14.43;97.79
57232;BME280;43488;46.934;8.276;2023-04-28T09:57:54;96481.38;;;14.45;96.70
57232;BME280;43488;46.934;8.276;2023-04-28T10:00:23;96473.28;;;14.40;96.11
57232;BME280;43488;46.934;8.276;2023-04-28T10:02:50;96465.81;;;14.37;96.82
57232;BME280;43488;46.934;8.276;2023-04-28T10:05:18;96480.88;;;14.24;97.74
57232;BME280;43488;46.934;8.276;2023-04-28T10:07:47;96491.03;;;14.28;98.97
57232;BME280;43488;46.934;8.276;2023-04-28T10:10:15;96481.47;;;14.38;98.34
57232;BME280;43488;46.934;8.276;2023-04-28T10:12:43;96477.88;;;14.44;99.85
57232;BME280;43488;46.934;8.276;2023-04-28T10:15:12;96491.50;;;14.48;100.00
57232;BME280;43488;46.934;8.276;2023-04-28T10:17:39;96488.69;;;14.43;100.00
57232;BME280;43488;46.934;8.276;2023-04-28T10:20:10;96497.34;;;14.38;100.00
57232;BME280;43488;46.934;8.276;2023-04-28T10:23:15;96492.97;;;14.32;99.63
57232;BME280;43488;46.934;8.276;2023-04-28T10:25:48;96489.84;;;14.35;99.32
57232;BME280;43488;46.934;8.276;2023-04-28T10:28:20;96495.75;;;14.37;100.00
57232;BME280;43488;46.934;8.276;2023-04-28T10:31:17;96497.94;;;14.29;99.53
57232;BME280;43488;46.934;8.276;2023-04-28T10:33:48;96504.72;;;14.36;97.05
57232;BME280;43488;46.934;8.276;2023-04-28T10:36:49;96490.44;;;14.37;99.00
57232;BME280;43488;46.934;8.276;2023-04-28T10:39:18;96492.31;;;14.48;98.09
57232;BME280;43488;46.934;8.276;2023-04-28T10:41:46;96494.03;;;14.55;97.60
57232;BME280;43488;46.934;8.276;2023-04-28T10:47:03;96499.09;;;14.56;95.74
57232;BME280;43488;46.934;8.276;2023-04-28T10:55:33;96490.09;;;14.57;99.16
57232;BME280;43488;46.934;8.276;2023-04-28T11:00:43;96490.09;;;14.57;100.00
57232;BME280;43488;46.934;8.276;2023-04-28T11:06:27;96486.63;;;14.68;96.07
57232;BME280;43488;46.934;8.276;2023-04-28T11:09:03;96489.25;;;14.92;97.39
57232;BME280;43488;46.934;8.276;2023-04-28T11:14:30;96494.94;;;15.12;98.09
57232;BME280;43488;46.934;8.276;2023-04-28T11:17:03;96493.50;;;15.21;97.06
57232;BME280;43488;46.934;8.276;2023-04-28T11:19:37;96487.66;;;15.19;95.27
57232;BME280;43488;46.934;8.276;2023-04-28T11:24:40;96477.97;;;15.13;90.78
57232;BME280;43488;46.934;8.276;2023-04-28T11:27:08;96480.56;;;15.36;88.88
57232;BME280;43488;46.934;8.276;2023-04-28T11:29:40;96472.41;;;15.43;89.21
57232;BME280;43488;46.934;8.276;2023-04-28T11:32:13;96477.91;;;15.65;89.15
57232;BME280;43488;46.934;8.276;2023-04-28T11:34:42;96479.72;;;15.81;89.65
57232;BME280;43488;46.934;8.276;2023-04-28T11:37:17;96469.13;;;15.81;88.31
57232;BME280;43488;46.934;8.276;2023-04-28T11:39:47;96460.84;;;15.95;87.53
57232;BME280;43488;46.934;8.276;2023-04-28T11:42:18;96462.09;;;16.09;87.87
57232;BME280;43488;46.934;8.276;2023-04-28T11:44:51;96461.00;;;16.05;87.95
57232;BME280;43488;46.934;8.276;2023-04-28T11:47:32;96457.13;;;15.96;90.61
57232;BME280;43488;46.934;8.276;2023-04-28T11:50:00;96446.66;;;16.06;89.95
57232;BME280;43488;46.934;8.276;2023-04-28T11:52:29;96454.63;;;16.06;89.57
57232;BME280;43488;46.934;8.276;2023-04-28T11:54:57;96450.94;;;16.07;89.43
57232;BME280;43488;46.934;8.276;2023-04-28T11:57:26;96444.81;;;16.06;90.59
57232;BME280;43488;46.934;8.276;2023-04-28T12:00:10;96455.44;;;15.89;88.05
57232;BME280;43488;46.934;8.276;2023-04-28T12:02:38;96460.47;;;15.57;87.67
57232;BME280;43488;46.934;8.276;2023-04-28T12:05:06;96459.56;;;15.52;88.25
57232;BME280;43488;46.934;8.276;2023-04-28T12:07:43;96468.31;;;15.35;90.79
57232;BME280;43488;46.934;8.276;2023-04-28T12:10:13;96467.13;;;15.43;90.42
57232;BME280;43488;46.934;8.276;2023-04-28T12:12:42;96464.88;;;15.52;89.27
57232;BME280;43488;46.934;8.276;2023-04-28T12:15:10;96470.69;;;15.49;91.25
57232;BME280;43488;46.934;8.276;2023-04-28T12:17:39;96475.63;;;15.45;92.76
57232;BME280;43488;46.934;8.276;2023-04-28T12:20:10;96471.72;;;15.48;94.81
57232;BME280;43488;46.934;8.276;2023-04-28T12:22:49;96476.13;;;15.42;95.61
57232;BME280;43488;46.934;8.276;2023-04-28T12:25:18;96479.72;;;15.36;96.62
57232;BME280;43488;46.934;8.276;2023-04-28T12:28:05;96482.19;;;15.26;94.71
57232;BME280;43488;46.934;8.276;2023-04-28T12:30:36;96481.13;;;15.27;95.37
57232;BME280;43488;46.934;8.276;2023-04-28T12:33:23;96473.66;;;15.24;98.39
57232;BME280;43488;46.934;8.276;2023-04-28T12:35:51;96482.19;;;15.26;100.00
57232;BME280;43488;46.934;8.276;2023-04-28T12:38:24;96470.06;;;15.30;96.48
57232;BME280;43488;46.934;8.276;2023-04-28T12:40:52;96475.38;;;15.30;95.76
57232;BME280;43488;46.934;8.276;2023-04-28T12:43:19;96476.06;;;15.25;99.83
57232;BME280;43488;46.934;8.276;2023-04-28T12:45:53;96469.34;;;15.34;100.00
57232;BME280;43488;46.934;8.276;2023-04-28T12:48:21;96475.31;;;15.42;99.03
57232;BME280;43488;46.934;8.276;2023-04-28T12:50:53;96479.69;;;15.48;97.03
57232;BME280;43488;46.934;8.276;2023-04-28T12:53:21;96476.16;;;15.59;94.64
57232;BME280;43488;46.934;8.276;2023-04-28T12:55:49;96467.53;;;15.63;96.01
57232;BME280;43488;46.934;8.276;2023-04-28T12:58:17;96480.53;;;15.65;96.31
57232;BME280;43488;46.934;8.276;2023-04-28T13:00:44;96476.22;;;15.76;96.53
57232;BME280;43488;46.934;8.276;2023-04-28T13:03:11;96478.13;;;15.80;97.40
57232;BME280;43488;46.934;8.276;2023-04-28T13:05:39;96471.06;;;15.86;97.43
57232;BME280;43488;46.934;8.276;2023-04-28T13:08:07;96459.25;;;15.93;96.86
57232;BME280;43488;46.934;8.276;2023-04-28T13:10:35;96458.19;;;15.95;95.98
57232;BME280;43488;46.934;8.276;2023-04-28T13:13:02;96450.78;;;15.97;97.73
57232;BME280;43488;46.934;8.276;2023-04-28T13:15:31;96451.03;;;15.95;97.39
57232;BME280;43488;46.934;8.276;2023-04-28T13:17:58;96447.63;;;16.00;96.58
57232;BME280;43488;46.934;8.276;2023-04-28T13:20:25;96445.47;;;16.13;95.77
57232;BME280;43488;46.934;8.276;2023-04-28T13:22:53;96437.88;;;16.22;93.93
57232;BME280;43488;46.934;8.276;2023-04-28T13:25:20;96436.34;;;16.26;93.70